Forside
METAR-TAF:

METAR-TAF

Lufthavne :

Darwin, Australien

Breddekreds: 12-24S, længdekreds: 130-52E, højde: 31 m

Aktuelle vejr

Denne rapport blev lavet for 32 minutter siden, kl. 00:00 UTC
Vind 7 kt fra syd
Temperatur 29°C
Fugtighed 58%
Tryk 1014 hPa
Sigt 10 km eller mere
Nogle få skyer i en højde af 3000 ft

METAR: YPDN 210000Z 19007KT 9999 FEW030 29/20 Q1014 NOSIG

Tid: 10:02 (00:32 UTC)

Vejrudsigter

Denne rapport blev lavet for 1 time og 5 minutter siden, kl. 23:27 UTC
Foreløbig gælder fra 21 på 00 UTC til 22 på 06 UTC
Vind 11 kt fra øst
Sigt 10 km eller mere
Nogle få skyer i en højde af 4000 ft
Fra 21 på 0400 UTC
Vind 12 kt fra nord
Sigt 10 km eller mere
ingen skyer under 1500m og ingen cumulonimbus
Fra 21 på 1000 UTC
Vind 5 kt fra sydøst
Sigt 10 km eller mere
Nogle få skyer i en højde af 1600 ft
Fra 22 på 0300 UTC
Vind 14 kt fra nordøst
Sigt 10 km eller mere
ingen skyer under 1500m og ingen cumulonimbus

TAF: YPDN 202327Z 2100/2206 10011KT 9999 FEW040 FM210400 35012KT CAVOK FM211000 14005KT 9999 FEW016 FM220300 05014KT CAVOK

Vejrobservationer og prognoser fra mere end 4000 lufthavne (METAR og TAF).

De gule og røde prikker repræsenterer de meteorologiske stationer.

Flyt musen over at se navnet på stationen.

Så klik over at se vejr observationer og prognoser.

At skifte det kort: Klik på de grønne knapper med et sort kors for at zoome ind; på den grønne knap med en bindestreg for at zoome ud; eller på de grønne pile for tilstødende kort.


METAR-TAF: